Liege, Missouri
Current Conditions -  °F | °C
As of 4:15 PM on Tuesday 25 Nov 2014 (Local Time) from KFYG Reporting Station
Clear Clear  
Wind Chill: 36°   Ceiling: Unl
Heat Index: 39°   Visibility: 10mi
Dew Point: 23°   Wind: 5mph
Humidity: 52%   Direction: 310°NW
Pressure: 30.15"   Gusts: NA
Location:  38.9997°N, 91.3365°W
Report Text: KFYG 252215Z AUTO 31004KT 10SM CLR 04/M05 A3015 RMK AO2
Loading
Personal Weather Stations






























Interactive Weather Map New forecast layout! Learn more

10-Day Weather Forecast

Advertisements
Track Severe Weather on mobile